sensor_id;sensor_type;location;lat;lon;timestamp;temperature;humidity
70456;DHT22;57916;51.996;5.180;2023-07-20T00:02:04;21.70;68.20
70456;DHT22;57916;51.996;5.180;2023-07-20T00:04:34;21.70;68.60
70456;DHT22;57916;51.996;5.180;2023-07-20T00:07:01;21.70;68.40
70456;DHT22;57916;51.996;5.180;2023-07-20T00:09:28;21.70;68.50
70456;DHT22;57916;51.996;5.180;2023-07-20T00:11:55;21.70;68.60
70456;DHT22;57916;51.996;5.180;2023-07-20T00:14:22;21.70;68.00
70456;DHT22;57916;51.996;5.180;2023-07-20T00:16:50;21.70;68.10
70456;DHT22;57916;51.996;5.180;2023-07-20T00:19:24;21.70;68.00
70456;DHT22;57916;51.996;5.180;2023-07-20T00:21:52;21.70;68.10
70456;DHT22;57916;51.996;5.180;2023-07-20T00:24:19;21.60;68.20
70456;DHT22;57916;51.996;5.180;2023-07-20T00:26:46;21.50;68.40
70456;DHT22;57916;51.996;5.180;2023-07-20T00:29:14;21.50;68.60
70456;DHT22;57916;51.996;5.180;2023-07-20T00:31:41;21.40;68.40
70456;DHT22;57916;51.996;5.180;2023-07-20T00:34:10;21.40;68.60
70456;DHT22;57916;51.996;5.180;2023-07-20T00:36:39;21.40;69.00
70456;DHT22;57916;51.996;5.180;2023-07-20T00:39:06;21.40;68.80
70456;DHT22;57916;51.996;5.180;2023-07-20T00:41:33;21.30;69.10
70456;DHT22;57916;51.996;5.180;2023-07-20T00:44:02;21.20;68.80
70456;DHT22;57916;51.996;5.180;2023-07-20T00:46:29;21.20;68.90
70456;DHT22;57916;51.996;5.180;2023-07-20T00:48:56;21.10;68.70
70456;DHT22;57916;51.996;5.180;2023-07-20T00:51:23;21.20;68.80
70456;DHT22;57916;51.996;5.180;2023-07-20T00:53:51;21.10;68.10
70456;DHT22;57916;51.996;5.180;2023-07-20T00:56:18;21.00;68.20
70456;DHT22;57916;51.996;5.180;2023-07-20T00:58:46;21.00;68.90
70456;DHT22;57916;51.996;5.180;2023-07-20T01:01:13;21.00;68.60
70456;DHT22;57916;51.996;5.180;2023-07-20T01:03:41;21.00;68.60
70456;DHT22;57916;51.996;5.180;2023-07-20T01:09:13;20.90;68.30
70456;DHT22;57916;51.996;5.180;2023-07-20T01:11:58;20.90;68.50
70456;DHT22;57916;51.996;5.180;2023-07-20T01:14:26;20.90;68.40
70456;DHT22;57916;51.996;5.180;2023-07-20T01:16:54;20.90;68.50
70456;DHT22;57916;51.996;5.180;2023-07-20T01:19:21;20.90;68.50
70456;DHT22;57916;51.996;5.180;2023-07-20T01:24:45;20.90;69.10
70456;DHT22;57916;51.996;5.180;2023-07-20T01:32:41;20.80;68.30
70456;DHT22;57916;51.996;5.180;2023-07-20T01:35:11;20.90;68.00
70456;DHT22;57916;51.996;5.180;2023-07-20T01:37:46;20.80;67.90
70456;DHT22;57916;51.996;5.180;2023-07-20T01:40:14;20.80;68.00
70456;DHT22;57916;51.996;5.180;2023-07-20T01:42:46;20.80;67.80
70456;DHT22;57916;51.996;5.180;2023-07-20T01:45:14;20.80;67.70
70456;DHT22;57916;51.996;5.180;2023-07-20T01:47:41;20.80;67.80
70456;DHT22;57916;51.996;5.180;2023-07-20T01:50:08;20.80;67.70
70456;DHT22;57916;51.996;5.180;2023-07-20T01:52:35;20.70;67.80
70456;DHT22;57916;51.996;5.180;2023-07-20T01:55:03;20.70;67.70
70456;DHT22;57916;51.996;5.180;2023-07-20T01:57:31;20.70;67.70
70456;DHT22;57916;51.996;5.180;2023-07-20T01:59:58;20.70;67.40
70456;DHT22;57916;51.996;5.180;2023-07-20T02:02:27;20.70;67.50
70456;DHT22;57916;51.996;5.180;2023-07-20T02:04:55;20.60;67.30
70456;DHT22;57916;51.996;5.180;2023-07-20T02:07:22;20.60;67.20
70456;DHT22;57916;51.996;5.180;2023-07-20T02:09:50;20.60;67.00
70456;DHT22;57916;51.996;5.180;2023-07-20T02:12:17;20.60;66.80
70456;DHT22;57916;51.996;5.180;2023-07-20T02:14:44;20.60;67.20
70456;DHT22;57916;51.996;5.180;2023-07-20T02:17:11;20.60;66.80
70456;DHT22;57916;51.996;5.180;2023-07-20T02:19:40;20.50;66.70
70456;DHT22;57916;51.996;5.180;2023-07-20T02:22:07;20.50;66.60
70456;DHT22;57916;51.996;5.180;2023-07-20T02:24:34;20.50;66.50
70456;DHT22;57916;51.996;5.180;2023-07-20T02:27:01;20.40;66.50
70456;DHT22;57916;51.996;5.180;2023-07-20T02:29:29;20.40;66.40
70456;DHT22;57916;51.996;5.180;2023-07-20T02:31:56;20.40;66.20
70456;DHT22;57916;51.996;5.180;2023-07-20T02:34:23;20.40;66.60
70456;DHT22;57916;51.996;5.180;2023-07-20T02:36:50;20.30;66.80
70456;DHT22;57916;51.996;5.180;2023-07-20T02:39:17;20.30;67.10
70456;DHT22;57916;51.996;5.180;2023-07-20T02:41:44;20.30;67.10
70456;DHT22;57916;51.996;5.180;2023-07-20T02:44:11;20.30;66.80
70456;DHT22;57916;51.996;5.180;2023-07-20T02:46:37;20.20;67.30
70456;DHT22;57916;51.996;5.180;2023-07-20T02:49:05;20.20;67.30
70456;DHT22;57916;51.996;5.180;2023-07-20T02:51:32;20.20;67.30
70456;DHT22;57916;51.996;5.180;2023-07-20T02:53:59;20.10;67.50
70456;DHT22;57916;51.996;5.180;2023-07-20T02:56:26;20.10;67.50
70456;DHT22;57916;51.996;5.180;2023-07-20T02:58:53;20.10;67.70
70456;DHT22;57916;51.996;5.180;2023-07-20T03:01:20;20.00;67.50
70456;DHT22;57916;51.996;5.180;2023-07-20T03:03:47;20.00;67.40
70456;DHT22;57916;51.996;5.180;2023-07-20T03:06:15;20.00;67.50
70456;DHT22;57916;51.996;5.180;2023-07-20T03:08:43;20.00;67.30
70456;DHT22;57916;51.996;5.180;2023-07-20T03:11:15;19.90;67.10
70456;DHT22;57916;51.996;5.180;2023-07-20T03:13:43;19.90;67.20
70456;DHT22;57916;51.996;5.180;2023-07-20T03:16:11;19.90;67.40
70456;DHT22;57916;51.996;5.180;2023-07-20T03:18:40;19.80;68.30
70456;DHT22;57916;51.996;5.180;2023-07-20T03:21:08;19.80;67.50
70456;DHT22;57916;51.996;5.180;2023-07-20T03:23:35;19.80;67.90
70456;DHT22;57916;51.996;5.180;2023-07-20T03:26:02;19.80;68.00
70456;DHT22;57916;51.996;5.180;2023-07-20T03:28:30;19.80;68.00
70456;DHT22;57916;51.996;5.180;2023-07-20T03:30:57;19.80;67.70
70456;DHT22;57916;51.996;5.180;2023-07-20T03:33:27;19.70;67.40
70456;DHT22;57916;51.996;5.180;2023-07-20T03:35:57;19.70;67.00
70456;DHT22;57916;51.996;5.180;2023-07-20T03:38:25;19.70;67.10
70456;DHT22;57916;51.996;5.180;2023-07-20T03:40:59;19.70;67.10
70456;DHT22;57916;51.996;5.180;2023-07-20T03:43:27;19.60;67.30
70456;DHT22;57916;51.996;5.180;2023-07-20T03:45:55;19.60;68.00
70456;DHT22;57916;51.996;5.180;2023-07-20T03:48:24;19.60;68.20
70456;DHT22;57916;51.996;5.180;2023-07-20T03:50:53;19.60;68.40
70456;DHT22;57916;51.996;5.180;2023-07-20T03:53:21;19.60;68.20
70456;DHT22;57916;51.996;5.180;2023-07-20T03:55:49;19.50;68.60
70456;DHT22;57916;51.996;5.180;2023-07-20T03:58:17;19.50;69.00
70456;DHT22;57916;51.996;5.180;2023-07-20T04:00:46;19.50;69.80
70456;DHT22;57916;51.996;5.180;2023-07-20T04:03:13;19.60;68.80
70456;DHT22;57916;51.996;5.180;2023-07-20T04:05:41;19.50;68.80
70456;DHT22;57916;51.996;5.180;2023-07-20T04:08:09;19.50;68.60
70456;DHT22;57916;51.996;5.180;2023-07-20T04:10:38;19.50;68.60
70456;DHT22;57916;51.996;5.180;2023-07-20T04:13:05;19.50;68.80
70456;DHT22;57916;51.996;5.180;2023-07-20T04:15:33;19.50;69.20
70456;DHT22;57916;51.996;5.180;2023-07-20T04:18:00;19.50;69.40
70456;DHT22;57916;51.996;5.180;2023-07-20T04:20:28;19.40;69.40
70456;DHT22;57916;51.996;5.180;2023-07-20T04:22:55;19.40;69.50
70456;DHT22;57916;51.996;5.180;2023-07-20T04:25:23;19.40;69.50
70456;DHT22;57916;51.996;5.180;2023-07-20T04:27:50;19.40;69.70
70456;DHT22;57916;51.996;5.180;2023-07-20T04:30:18;19.40;69.90
70456;DHT22;57916;51.996;5.180;2023-07-20T04:32:49;19.40;69.80
70456;DHT22;57916;51.996;5.180;2023-07-20T04:35:45;19.40;69.70
70456;DHT22;57916;51.996;5.180;2023-07-20T04:38:08;19.50;69.80
70456;DHT22;57916;51.996;5.180;2023-07-20T04:40:35;19.50;69.60
70456;DHT22;57916;51.996;5.180;2023-07-20T04:43:02;19.50;69.70
70456;DHT22;57916;51.996;5.180;2023-07-20T04:45:29;19.50;69.60
70456;DHT22;57916;51.996;5.180;2023-07-20T04:47:57;19.50;69.90
70456;DHT22;57916;51.996;5.180;2023-07-20T04:50:24;19.50;70.00
70456;DHT22;57916;51.996;5.180;2023-07-20T04:52:52;19.60;70.20
70456;DHT22;57916;51.996;5.180;2023-07-20T04:55:21;19.60;70.40
70456;DHT22;57916;51.996;5.180;2023-07-20T04:57:48;19.60;70.50
70456;DHT22;57916;51.996;5.180;2023-07-20T05:00:16;19.60;70.60
70456;DHT22;57916;51.996;5.180;2023-07-20T05:02:44;19.60;70.60
70456;DHT22;57916;51.996;5.180;2023-07-20T05:05:11;19.70;70.50
70456;DHT22;57916;51.996;5.180;2023-07-20T05:07:38;19.80;70.50
70456;DHT22;57916;51.996;5.180;2023-07-20T05:10:06;19.80;70.50
70456;DHT22;57916;51.996;5.180;2023-07-20T05:12:34;19.80;70.50
70456;DHT22;57916;51.996;5.180;2023-07-20T05:15:02;19.90;70.70
70456;DHT22;57916;51.996;5.180;2023-07-20T05:17:30;19.90;72.00
70456;DHT22;57916;51.996;5.180;2023-07-20T05:19:57;19.90;71.20
70456;DHT22;57916;51.996;5.180;2023-07-20T05:22:24;20.00;71.30
70456;DHT22;57916;51.996;5.180;2023-07-20T05:24:52;20.10;70.80
70456;DHT22;57916;51.996;5.180;2023-07-20T05:27:18;20.10;70.90
70456;DHT22;57916;51.996;5.180;2023-07-20T05:29:46;20.20;71.10
70456;DHT22;57916;51.996;5.180;2023-07-20T05:32:13;20.30;71.10
70456;DHT22;57916;51.996;5.180;2023-07-20T05:34:40;20.40;71.00
70456;DHT22;57916;51.996;5.180;2023-07-20T05:37:07;20.40;70.80
70456;DHT22;57916;51.996;5.180;2023-07-20T05:39:34;20.40;70.60
70456;DHT22;57916;51.996;5.180;2023-07-20T05:42:01;20.40;70.40
70456;DHT22;57916;51.996;5.180;2023-07-20T05:44:28;20.50;69.60
70456;DHT22;57916;51.996;5.180;2023-07-20T05:46:55;20.50;69.20
70456;DHT22;57916;51.996;5.180;2023-07-20T05:49:24;20.60;69.20
70456;DHT22;57916;51.996;5.180;2023-07-20T05:51:51;20.60;68.60
70456;DHT22;57916;51.996;5.180;2023-07-20T05:54:18;20.70;68.40
70456;DHT22;57916;51.996;5.180;2023-07-20T05:56:46;20.70;68.20
70456;DHT22;57916;51.996;5.180;2023-07-20T05:59:13;20.80;68.10
70456;DHT22;57916;51.996;5.180;2023-07-20T06:01:40;20.80;67.80
70456;DHT22;57916;51.996;5.180;2023-07-20T06:04:08;20.80;68.00
70456;DHT22;57916;51.996;5.180;2023-07-20T06:06:35;20.80;67.40
70456;DHT22;57916;51.996;5.180;2023-07-20T06:09:02;20.90;66.80
70456;DHT22;57916;51.996;5.180;2023-07-20T06:11:34;21.00;67.50
70456;DHT22;57916;51.996;5.180;2023-07-20T06:14:01;21.00;66.60
70456;DHT22;57916;51.996;5.180;2023-07-20T06:16:28;21.10;66.10
70456;DHT22;57916;51.996;5.180;2023-07-20T06:18:55;21.10;66.40
70456;DHT22;57916;51.996;5.180;2023-07-20T06:21:22;21.20;66.30
70456;DHT22;57916;51.996;5.180;2023-07-20T06:23:49;21.20;65.00
70456;DHT22;57916;51.996;5.180;2023-07-20T06:26:16;21.30;65.10
70456;DHT22;57916;51.996;5.180;2023-07-20T06:28:43;21.40;64.60
70456;DHT22;57916;51.996;5.180;2023-07-20T06:31:10;21.40;64.40
70456;DHT22;57916;51.996;5.180;2023-07-20T06:33:38;21.50;63.90
70456;DHT22;57916;51.996;5.180;2023-07-20T06:36:05;21.60;63.80
70456;DHT22;57916;51.996;5.180;2023-07-20T06:38:32;21.70;63.40
70456;DHT22;57916;51.996;5.180;2023-07-20T06:40:59;21.90;63.10
70456;DHT22;57916;51.996;5.180;2023-07-20T06:43:46;21.90;62.70
70456;DHT22;57916;51.996;5.180;2023-07-20T06:46:15;22.10;62.30
70456;DHT22;57916;51.996;5.180;2023-07-20T06:48:42;22.10;61.20
70456;DHT22;57916;51.996;5.180;2023-07-20T06:51:12;22.20;60.70
70456;DHT22;57916;51.996;5.180;2023-07-20T06:53:39;22.40;60.90
70456;DHT22;57916;51.996;5.180;2023-07-20T06:56:06;22.50;59.10
70456;DHT22;57916;51.996;5.180;2023-07-20T06:58:33;22.50;60.20
70456;DHT22;57916;51.996;5.180;2023-07-20T07:01:05;22.70;59.20
70456;DHT22;57916;51.996;5.180;2023-07-20T07:03:32;22.80;59.50
70456;DHT22;57916;51.996;5.180;2023-07-20T07:06:05;22.90;57.70
70456;DHT22;57916;51.996;5.180;2023-07-20T07:08:32;23.00;57.90
70456;DHT22;57916;51.996;5.180;2023-07-20T07:10:59;23.20;56.00
70456;DHT22;57916;51.996;5.180;2023-07-20T07:13:26;23.30;56.50
70456;DHT22;57916;51.996;5.180;2023-07-20T07:15:53;23.50;56.20
70456;DHT22;57916;51.996;5.180;2023-07-20T07:18:20;23.80;55.00
70456;DHT22;57916;51.996;5.180;2023-07-20T07:20:51;24.10;54.50
70456;DHT22;57916;51.996;5.180;2023-07-20T07:23:19;24.40;53.00
70456;DHT22;57916;51.996;5.180;2023-07-20T07:25:46;24.50;52.70
70456;DHT22;57916;51.996;5.180;2023-07-20T07:28:13;24.60;51.30
70456;DHT22;57916;51.996;5.180;2023-07-20T07:30:40;24.80;52.50
70456;DHT22;57916;51.996;5.180;2023-07-20T07:33:07;24.90;50.70
70456;DHT22;57916;51.996;5.180;2023-07-20T07:35:36;25.10;51.20
70456;DHT22;57916;51.996;5.180;2023-07-20T07:38:03;25.10;49.40
70456;DHT22;57916;51.996;5.180;2023-07-20T07:40:50;25.20;48.40
70456;DHT22;57916;51.996;5.180;2023-07-20T07:43:17;25.00;49.50
70456;DHT22;57916;51.996;5.180;2023-07-20T07:45:44;25.00;50.80
70456;DHT22;57916;51.996;5.180;2023-07-20T07:48:11;24.80;50.00
70456;DHT22;57916;51.996;5.180;2023-07-20T07:50:39;24.70;50.00
70456;DHT22;57916;51.996;5.180;2023-07-20T07:53:09;24.60;51.50
70456;DHT22;57916;51.996;5.180;2023-07-20T07:55:37;24.50;51.80
70456;DHT22;57916;51.996;5.180;2023-07-20T07:58:04;24.50;51.50
70456;DHT22;57916;51.996;5.180;2023-07-20T08:00:31;24.30;51.50
70456;DHT22;57916;51.996;5.180;2023-07-20T08:02:58;24.20;52.80
70456;DHT22;57916;51.996;5.180;2023-07-20T08:05:25;24.20;52.80
70456;DHT22;57916;51.996;5.180;2023-07-20T08:07:53;24.30;52.70
70456;DHT22;57916;51.996;5.180;2023-07-20T08:10:20;24.50;50.60
70456;DHT22;57916;51.996;5.180;2023-07-20T08:12:47;24.70;50.50
70456;DHT22;57916;51.996;5.180;2023-07-20T08:15:14;25.00;48.40
70456;DHT22;57916;51.996;5.180;2023-07-20T08:17:42;25.30;48.20
70456;DHT22;57916;51.996;5.180;2023-07-20T08:20:12;25.50;46.50
70456;DHT22;57916;51.996;5.180;2023-07-20T08:22:40;25.80;46.60
70456;DHT22;57916;51.996;5.180;2023-07-20T08:25:07;26.00;45.80
70456;DHT22;57916;51.996;5.180;2023-07-20T08:27:35;26.30;45.60
70456;DHT22;57916;51.996;5.180;2023-07-20T08:30:03;26.60;44.70
70456;DHT22;57916;51.996;5.180;2023-07-20T08:32:32;26.90;43.10
70456;DHT22;57916;51.996;5.180;2023-07-20T08:34:59;27.30;42.20
70456;DHT22;57916;51.996;5.180;2023-07-20T08:37:26;27.50;41.80
70456;DHT22;57916;51.996;5.180;2023-07-20T08:39:53;27.80;43.60
70456;DHT22;57916;51.996;5.180;2023-07-20T08:42:20;28.00;42.40
70456;DHT22;57916;51.996;5.180;2023-07-20T08:44:50;28.20;40.70
70456;DHT22;57916;51.996;5.180;2023-07-20T08:47:18;28.30;39.10
70456;DHT22;57916;51.996;5.180;2023-07-20T08:49:48;28.10;38.80
70456;DHT22;57916;51.996;5.180;2023-07-20T08:52:16;28.00;39.90
70456;DHT22;57916;51.996;5.180;2023-07-20T08:54:43;27.80;40.30
70456;DHT22;57916;51.996;5.180;2023-07-20T08:57:13;27.70;41.20
70456;DHT22;57916;51.996;5.180;2023-07-20T08:59:41;27.60;38.40
70456;DHT22;57916;51.996;5.180;2023-07-20T09:02:13;27.40;39.90
70456;DHT22;57916;51.996;5.180;2023-07-20T09:04:45;27.40;39.40
70456;DHT22;57916;51.996;5.180;2023-07-20T09:07:13;27.40;39.30
70456;DHT22;57916;51.996;5.180;2023-07-20T09:09:41;27.50;40.00
70456;DHT22;57916;51.996;5.180;2023-07-20T09:12:14;27.60;38.50
70456;DHT22;57916;51.996;5.180;2023-07-20T09:14:44;27.80;38.20
70456;DHT22;57916;51.996;5.180;2023-07-20T09:17:15;28.20;40.00
70456;DHT22;57916;51.996;5.180;2023-07-20T09:19:47;28.40;39.50
70456;DHT22;57916;51.996;5.180;2023-07-20T09:22:15;28.50;38.70
70456;DHT22;57916;51.996;5.180;2023-07-20T09:24:42;28.50;38.80
70456;DHT22;57916;51.996;5.180;2023-07-20T09:27:10;28.50;38.40
70456;DHT22;57916;51.996;5.180;2023-07-20T09:29:51;28.50;37.50
70456;DHT22;57916;51.996;5.180;2023-07-20T09:32:21;28.40;38.50
70456;DHT22;57916;51.996;5.180;2023-07-20T09:34:52;28.30;37.20
70456;DHT22;57916;51.996;5.180;2023-07-20T09:37:22;28.10;38.90
70456;DHT22;57916;51.996;5.180;2023-07-20T09:39:53;27.90;38.50
70456;DHT22;57916;51.996;5.180;2023-07-20T09:42:23;27.70;40.00
70456;DHT22;57916;51.996;5.180;2023-07-20T09:44:55;27.50;40.60
70456;DHT22;57916;51.996;5.180;2023-07-20T09:47:23;27.50;40.50
70456;DHT22;57916;51.996;5.180;2023-07-20T09:49:58;27.60;41.20
70456;DHT22;57916;51.996;5.180;2023-07-20T09:52:29;27.80;41.20
70456;DHT22;57916;51.996;5.180;2023-07-20T09:55:01;28.00;39.00
70456;DHT22;57916;51.996;5.180;2023-07-20T09:57:29;28.20;36.20
70456;DHT22;57916;51.996;5.180;2023-07-20T09:59:57;28.10;36.10
70456;DHT22;57916;51.996;5.180;2023-07-20T10:02:33;28.00;37.10
70456;DHT22;57916;51.996;5.180;2023-07-20T10:05:02;28.10;39.10
70456;DHT22;57916;51.996;5.180;2023-07-20T10:07:31;28.30;38.40
70456;DHT22;57916;51.996;5.180;2023-07-20T10:10:01;28.60;38.00
70456;DHT22;57916;51.996;5.180;2023-07-20T10:12:30;28.70;37.00
70456;DHT22;57916;51.996;5.180;2023-07-20T10:15:15;28.90;36.30
70456;DHT22;57916;51.996;5.180;2023-07-20T10:17:57;28.90;35.60
70456;DHT22;57916;51.996;5.180;2023-07-20T10:20:25;29.00;37.00
70456;DHT22;57916;51.996;5.180;2023-07-20T10:22:54;29.10;38.20
70456;DHT22;57916;51.996;5.180;2023-07-20T10:25:23;29.20;35.60
70456;DHT22;57916;51.996;5.180;2023-07-20T10:27:51;29.40;36.20
70456;DHT22;57916;51.996;5.180;2023-07-20T10:30:19;29.40;34.60
70456;DHT22;57916;51.996;5.180;2023-07-20T10:32:47;29.40;36.30
70456;DHT22;57916;51.996;5.180;2023-07-20T10:35:16;29.30;36.90
70456;DHT22;57916;51.996;5.180;2023-07-20T10:40:30;29.40;35.70
70456;DHT22;57916;51.996;5.180;2023-07-20T10:48:03;29.40;35.20
70456;DHT22;57916;51.996;5.180;2023-07-20T10:50:36;29.30;34.70
70456;DHT22;57916;51.996;5.180;2023-07-20T10:53:14;29.30;35.90
70456;DHT22;57916;51.996;5.180;2023-07-20T10:55:42;29.40;34.50
70456;DHT22;57916;51.996;5.180;2023-07-20T10:58:14;29.40;33.30
70456;DHT22;57916;51.996;5.180;2023-07-20T11:01:01;29.40;34.10
70456;DHT22;57916;51.996;5.180;2023-07-20T11:03:34;29.40;34.10
70456;DHT22;57916;51.996;5.180;2023-07-20T11:06:30;29.30;33.10
70456;DHT22;57916;51.996;5.180;2023-07-20T11:09:09;29.10;33.60
70456;DHT22;57916;51.996;5.180;2023-07-20T11:11:39;29.10;35.20
70456;DHT22;57916;51.996;5.180;2023-07-20T11:14:23;28.90;34.50
70456;DHT22;57916;51.996;5.180;2023-07-20T11:16:52;28.90;35.40
70456;DHT22;57916;51.996;5.180;2023-07-20T11:19:21;28.90;34.90
70456;DHT22;57916;51.996;5.180;2023-07-20T11:21:57;29.00;36.00
70456;DHT22;57916;51.996;5.180;2023-07-20T11:24:27;29.20;34.90
70456;DHT22;57916;51.996;5.180;2023-07-20T11:26:55;29.40;34.80
70456;DHT22;57916;51.996;5.180;2023-07-20T11:29:23;29.50;35.00
70456;DHT22;57916;51.996;5.180;2023-07-20T11:31:56;29.60;34.00
70456;DHT22;57916;51.996;5.180;2023-07-20T11:34:23;29.50;34.70
70456;DHT22;57916;51.996;5.180;2023-07-20T11:36:51;29.50;34.70
70456;DHT22;57916;51.996;5.180;2023-07-20T11:39:22;29.30;33.10
70456;DHT22;57916;51.996;5.180;2023-07-20T11:41:52;29.00;33.10
70456;DHT22;57916;51.996;5.180;2023-07-20T11:44:22;28.80;34.70
70456;DHT22;57916;51.996;5.180;2023-07-20T11:47:04;28.60;34.50
70456;DHT22;57916;51.996;5.180;2023-07-20T11:49:40;28.60;35.30
70456;DHT22;57916;51.996;5.180;2023-07-20T11:52:09;28.70;34.80
70456;DHT22;57916;51.996;5.180;2023-07-20T11:54:40;28.80;35.50
70456;DHT22;57916;51.996;5.180;2023-07-20T11:57:16;28.70;33.80
70456;DHT22;57916;51.996;5.180;2023-07-20T11:59:57;28.80;34.30
70456;DHT22;57916;51.996;5.180;2023-07-20T12:02:28;28.90;34.50
70456;DHT22;57916;51.996;5.180;2023-07-20T12:04:56;29.10;36.10
70456;DHT22;57916;51.996;5.180;2023-07-20T12:07:27;29.20;34.30
70456;DHT22;57916;51.996;5.180;2023-07-20T12:10:13;29.10;32.90
70456;DHT22;57916;51.996;5.180;2023-07-20T12:12:41;28.80;33.30
70456;DHT22;57916;51.996;5.180;2023-07-20T12:15:21;28.60;34.20
70456;DHT22;57916;51.996;5.180;2023-07-20T12:17:57;28.50;35.70
70456;DHT22;57916;51.996;5.180;2023-07-20T12:20:45;28.40;35.60
70456;DHT22;57916;51.996;5.180;2023-07-20T12:23:13;28.30;35.90
70456;DHT22;57916;51.996;5.180;2023-07-20T12:25:45;28.20;34.80
70456;DHT22;57916;51.996;5.180;2023-07-20T12:28:14;28.20;35.00
70456;DHT22;57916;51.996;5.180;2023-07-20T12:30:42;28.10;35.10
70456;DHT22;57916;51.996;5.180;2023-07-20T12:33:11;28.10;35.80
70456;DHT22;57916;51.996;5.180;2023-07-20T12:35:38;28.10;36.30
70456;DHT22;57916;51.996;5.180;2023-07-20T12:38:05;28.10;36.70
70456;DHT22;57916;51.996;5.180;2023-07-20T12:40:34;28.00;36.30
70456;DHT22;57916;51.996;5.180;2023-07-20T12:43:01;28.00;36.60
70456;DHT22;57916;51.996;5.180;2023-07-20T12:45:28;27.90;36.40
70456;DHT22;57916;51.996;5.180;2023-07-20T12:47:55;27.80;36.50
70456;DHT22;57916;51.996;5.180;2023-07-20T12:50:22;27.70;37.30
70456;DHT22;57916;51.996;5.180;2023-07-20T12:52:49;27.60;36.20
70456;DHT22;57916;51.996;5.180;2023-07-20T12:55:16;27.50;36.40
70456;DHT22;57916;51.996;5.180;2023-07-20T12:57:43;27.50;36.30
70456;DHT22;57916;51.996;5.180;2023-07-20T13:00:10;27.50;36.40
70456;DHT22;57916;51.996;5.180;2023-07-20T13:02:38;27.40;37.30
70456;DHT22;57916;51.996;5.180;2023-07-20T13:05:05;27.30;37.60
70456;DHT22;57916;51.996;5.180;2023-07-20T13:07:34;27.20;37.90
70456;DHT22;57916;51.996;5.180;2023-07-20T13:10:05;27.10;37.30
70456;DHT22;57916;51.996;5.180;2023-07-20T13:12:33;27.00;37.70
70456;DHT22;57916;51.996;5.180;2023-07-20T13:15:05;26.90;38.00
70456;DHT22;57916;51.996;5.180;2023-07-20T13:17:33;26.80;38.10
70456;DHT22;57916;51.996;5.180;2023-07-20T13:20:01;26.70;39.10
70456;DHT22;57916;51.996;5.180;2023-07-20T13:22:28;26.60;39.80
70456;DHT22;57916;51.996;5.180;2023-07-20T13:24:55;26.60;39.40
70456;DHT22;57916;51.996;5.180;2023-07-20T13:27:22;26.50;39.80
70456;DHT22;57916;51.996;5.180;2023-07-20T13:29:51;26.50;39.90
70456;DHT22;57916;51.996;5.180;2023-07-20T13:32:20;26.50;40.40
70456;DHT22;57916;51.996;5.180;2023-07-20T13:34:47;26.70;43.30
70456;DHT22;57916;51.996;5.180;2023-07-20T13:37:15;26.70;40.50
70456;DHT22;57916;51.996;5.180;2023-07-20T13:39:43;26.80;40.60
70456;DHT22;57916;51.996;5.180;2023-07-20T13:42:11;26.90;39.60
70456;DHT22;57916;51.996;5.180;2023-07-20T13:44:41;27.00;39.40
70456;DHT22;57916;51.996;5.180;2023-07-20T13:47:08;27.00;39.30
70456;DHT22;57916;51.996;5.180;2023-07-20T13:49:38;27.00;38.10
70456;DHT22;57916;51.996;5.180;2023-07-20T13:52:14;27.00;39.20
70456;DHT22;57916;51.996;5.180;2023-07-20T13:54:44;27.10;38.80
70456;DHT22;57916;51.996;5.180;2023-07-20T13:57:17;27.00;39.20
70456;DHT22;57916;51.996;5.180;2023-07-20T13:59:45;27.10;39.80
70456;DHT22;57916;51.996;5.180;2023-07-20T14:02:14;27.10;40.60
70456;DHT22;57916;51.996;5.180;2023-07-20T14:04:44;27.20;38.70
70456;DHT22;57916;51.996;5.180;2023-07-20T14:07:11;27.30;37.80
70456;DHT22;57916;51.996;5.180;2023-07-20T14:09:39;27.30;37.50
70456;DHT22;57916;51.996;5.180;2023-07-20T14:12:26;27.30;37.10
70456;DHT22;57916;51.996;5.180;2023-07-20T14:14:54;27.30;36.30
70456;DHT22;57916;51.996;5.180;2023-07-20T14:17:22;27.30;36.60
70456;DHT22;57916;51.996;5.180;2023-07-20T14:19:50;27.30;36.90
70456;DHT22;57916;51.996;5.180;2023-07-20T14:22:18;27.20;37.20
70456;DHT22;57916;51.996;5.180;2023-07-20T14:24:45;27.10;37.10
70456;DHT22;57916;51.996;5.180;2023-07-20T14:27:12;27.10;36.50
70456;DHT22;57916;51.996;5.180;2023-07-20T14:29:39;27.00;37.60
70456;DHT22;57916;51.996;5.180;2023-07-20T14:32:06;27.10;38.60
70456;DHT22;57916;51.996;5.180;2023-07-20T14:34:34;27.10;39.70
70456;DHT22;57916;51.996;5.180;2023-07-20T14:37:05;27.10;36.90
70456;DHT22;57916;51.996;5.180;2023-07-20T14:39:32;27.20;38.10
70456;DHT22;57916;51.996;5.180;2023-07-20T14:42:00;27.20;36.60
70456;DHT22;57916;51.996;5.180;2023-07-20T14:44:26;27.20;36.60
70456;DHT22;57916;51.996;5.180;2023-07-20T14:46:53;27.20;36.10
70456;DHT22;57916;51.996;5.180;2023-07-20T14:49:40;27.10;35.90
70456;DHT22;57916;51.996;5.180;2023-07-20T14:52:07;27.10;35.80
70456;DHT22;57916;51.996;5.180;2023-07-20T14:54:37;27.00;35.40
70456;DHT22;57916;51.996;5.180;2023-07-20T14:57:04;27.00;35.10
70456;DHT22;57916;51.996;5.180;2023-07-20T14:59:32;27.00;35.90
70456;DHT22;57916;51.996;5.180;2023-07-20T15:01:59;27.10;37.40
70456;DHT22;57916;51.996;5.180;2023-07-20T15:04:26;27.10;36.40
70456;DHT22;57916;51.996;5.180;2023-07-20T15:06:54;27.10;37.70
70456;DHT22;57916;51.996;5.180;2023-07-20T15:09:21;27.10;39.00
70456;DHT22;57916;51.996;5.180;2023-07-20T15:11:48;27.10;39.40
70456;DHT22;57916;51.996;5.180;2023-07-20T15:14:16;27.20;39.10
70456;DHT22;57916;51.996;5.180;2023-07-20T15:16:43;27.20;38.00
70456;DHT22;57916;51.996;5.180;2023-07-20T15:19:12;27.20;39.20
70456;DHT22;57916;51.996;5.180;2023-07-20T15:21:40;27.20;38.00
70456;DHT22;57916;51.996;5.180;2023-07-20T15:24:07;27.20;38.60
70456;DHT22;57916;51.996;5.180;2023-07-20T15:26:34;27.20;37.80
70456;DHT22;57916;51.996;5.180;2023-07-20T15:29:02;27.20;39.40
70456;DHT22;57916;51.996;5.180;2023-07-20T15:31:29;27.20;39.10
70456;DHT22;57916;51.996;5.180;2023-07-20T15:33:59;27.20;38.50
70456;DHT22;57916;51.996;5.180;2023-07-20T15:36:26;27.20;37.50
70456;DHT22;57916;51.996;5.180;2023-07-20T15:38:53;27.20;39.10
70456;DHT22;57916;51.996;5.180;2023-07-20T15:41:20;27.10;40.00
70456;DHT22;57916;51.996;5.180;2023-07-20T15:43:48;27.10;38.50
70456;DHT22;57916;51.996;5.180;2023-07-20T15:48:47;27.10;37.70
70456;DHT22;57916;51.996;5.180;2023-07-20T15:51:14;27.10;38.80
70456;DHT22;57916;51.996;5.180;2023-07-20T15:53:41;27.10;38.60
70456;DHT22;57916;51.996;5.180;2023-07-20T15:56:08;27.10;39.20
70456;DHT22;57916;51.996;5.180;2023-07-20T15:58:35;27.00;39.80
70456;DHT22;57916;51.996;5.180;2023-07-20T16:01:02;27.00;39.10
70456;DHT22;57916;51.996;5.180;2023-07-20T16:03:29;26.90;38.40